Time;durP1;ratioP1;P1;durP2;ratioP2;P2;SDS_P1;SDS_P2;PMS_P1;PMS_P2;Temp;Humidity;BMP_temperature;BMP_pressure;BME280_temperature;BME280_humidity;BME280_pressure;Samples;Min_cycle;Max_cycle;Signal;HPM_P1;HPM_P2
2022/02/28 00:01:08;;;;;;;;;18.00;16.75;;;;;4.98;52.47;101845.72;5105594;27;45542;-65
2022/02/28 00:03:34;;;;;;;;;13.75;13.75;;;;;4.94;52.06;101839.66;5096188;27;45223;-66
2022/02/28 00:05:59;;;;;;;;;15.50;13.50;;;;;4.94;52.85;101854.41;5095252;27;45288;-66
2022/02/28 00:08:25;;;;;;;;;19.75;14.50;;;;;4.88;52.88;101838.75;5078850;27;47018;-67
2022/02/28 00:10:50;;;;;;;;;14.50;12.75;;;;;4.92;52.42;101846.59;5075676;27;45145;-67
2022/02/28 00:13:16;;;;;;;;;13.00;13.00;;;;;4.88;52.70;101846.56;5081358;27;45376;-67
2022/02/28 00:15:41;;;;;;;;;14.25;14.25;;;;;4.86;53.19;101850.91;5075766;27;45187;-71
2022/02/28 00:18:06;;;;;;;;;14.75;13.75;;;;;4.82;52.97;101850.88;5082974;27;45449;-75
2022/02/28 00:20:32;;;;;;;;;16.00;12.25;;;;;4.78;53.18;101854.34;5079751;27;45464;-70
2022/02/28 00:22:57;;;;;;;;;16.00;12.75;;;;;4.79;52.91;101866.50;5104754;27;45746;-73
2022/02/28 00:25:23;;;;;;;;;11.75;11.00;;;;;4.78;53.62;101866.53;5106137;27;45802;-71
2022/02/28 00:27:48;;;;;;;;;15.25;12.50;;;;;4.77;53.58;101864.75;5098864;27;46229;-71
2022/02/28 00:30:14;;;;;;;;;18.00;13.00;;;;;4.73;53.35;101863.88;5094759;27;45346;-69
2022/02/28 00:32:39;;;;;;;;;14.00;12.75;;;;;4.71;53.17;101867.31;5096185;27;45308;-74
2022/02/28 00:35:07;;;;;;;;;13.50;11.25;;;;;4.71;53.35;101873.44;5096402;27;45471;-72
2022/02/28 00:37:33;;;;;;;;;12.50;10.00;;;;;4.69;53.69;101869.94;5095773;27;45422;-70
2022/02/28 00:39:58;;;;;;;;;13.75;10.75;;;;;4.65;53.66;101861.22;5095832;27;45329;-74
2022/02/28 00:42:23;;;;;;;;;14.50;13.00;;;;;4.65;53.42;101862.97;5102277;27;45343;-68
2022/02/28 00:44:49;;;;;;;;;15.00;13.75;;;;;4.63;53.96;101870.75;5101971;27;45358;-72
2022/02/28 00:47:15;;;;;;;;;16.00;13.75;;;;;4.60;54.25;101873.34;5094748;27;46752;-69
2022/02/28 00:49:40;;;;;;;;;13.00;12.75;;;;;4.58;53.92;101872.47;5115643;27;45513;-72
2022/02/28 00:52:06;;;;;;;;;14.00;12.25;;;;;4.58;53.91;101869.03;5116931;27;45501;-70
2022/02/28 00:54:31;;;;;;;;;17.50;13.75;;;;;4.54;53.85;101865.50;5132583;27;45396;-69
2022/02/28 00:56:57;;;;;;;;;11.00;11.00;;;;;4.53;54.27;101876.78;5088338;27;46040;-74
2022/02/28 00:59:22;;;;;;;;;12.75;12.00;;;;;4.47;54.75;101864.63;5095521;27;45244;-70
2022/02/28 01:01:48;;;;;;;;;11.00;10.50;;;;;4.47;54.48;101872.44;5095973;27;45324;-70
2022/02/28 01:04:14;;;;;;;;;13.25;12.00;;;;;4.45;54.52;101878.47;5094593;27;45408;-74
2022/02/28 01:06:40;;;;;;;;;16.00;13.00;;;;;4.40;54.92;101878.47;5095586;27;45397;-70
2022/02/28 01:09:05;;;;;;;;;17.50;13.50;;;;;4.35;54.21;101872.38;5095496;27;45415;-68
2022/02/28 01:11:32;;;;;;;;;14.25;12.25;;;;;4.36;54.51;101892.34;5097051;27;45541;-69
2022/02/28 01:13:57;;;;;;;;;16.25;11.25;;;;;4.34;54.58;101889.72;5096613;27;45566;-67
2022/02/28 01:16:23;;;;;;;;;15.00;15.00;;;;;4.31;54.45;101889.69;5096476;27;46146;-68
2022/02/28 01:18:49;;;;;;;;;11.50;11.00;;;;;4.29;54.72;101890.56;5078871;27;45500;-67
2022/02/28 01:21:14;;;;;;;;;9.75;9.50;;;;;4.29;55.15;101885.34;5098240;27;45439;-64
2022/02/28 01:23:39;;;;;;;;;16.50;13.25;;;;;4.23;54.76;101875.75;5096836;27;45497;-68
2022/02/28 01:26:05;;;;;;;;;17.25;12.75;;;;;4.20;55.60;101881.78;5096337;27;45963;-65
2022/02/28 01:28:30;;;;;;;;;13.25;11.75;;;;;4.20;55.35;101884.38;5077519;27;45497;-67
2022/02/28 01:30:55;;;;;;;;;15.50;11.00;;;;;4.16;55.26;101882.63;5076563;27;45721;-67
2022/02/28 01:33:21;;;;;;;;;14.00;12.00;;;;;4.16;54.93;101873.97;5077501;27;45531;-66
2022/02/28 01:35:46;;;;;;;;;15.75;11.75;;;;;4.15;55.14;101885.22;5078014;27;46733;-70
2022/02/28 01:38:12;;;;;;;;;17.25;13.75;;;;;4.13;55.27;101885.19;5076661;27;45959;-67
2022/02/28 01:40:37;;;;;;;;;12.50;11.50;;;;;4.11;55.20;101884.31;5078204;28;45197;-68
2022/02/28 01:43:04;;;;;;;;;12.75;12.75;;;;;4.11;55.22;101886.94;5078194;27;45226;-67
2022/02/28 01:45:29;;;;;;;;;12.50;11.00;;;;;4.08;55.25;101879.97;5078029;27;45251;-69
2022/02/28 01:47:56;;;;;;;;;12.50;11.50;;;;;4.08;55.37;101876.50;5078236;28;45401;-70
2022/02/28 01:50:23;;;;;;;;;17.50;12.00;;;;;4.06;55.95;101876.50;5076957;28;45349;-67
2022/02/28 01:52:48;;;;;;;;;14.25;11.50;;;;;3.99;55.20;101866.00;5077582;27;45321;-65
2022/02/28 01:55:15;;;;;;;;;13.25;11.25;;;;;4.03;55.53;101873.88;5077233;27;46036;-70
2022/02/28 01:57:41;;;;;;;;;16.25;11.75;;;;;4.03;55.44;101878.19;5077086;27;45319;-66
2022/02/28 02:00:13;;;;;;;;;9.25;9.25;;;;;4.00;55.25;101873.84;5076634;27;45259;-69
2022/02/28 02:02:38;;;;;;;;;12.25;11.00;;;;;3.99;54.88;101866.00;5077385;27;45464;-67
2022/02/28 02:05:06;;;;;;;;;12.00;11.00;;;;;3.96;55.84;101861.66;5077135;27;45808;-69
2022/02/28 02:07:31;;;;;;;;;11.75;9.75;;;;;3.96;55.33;101864.25;5094506;27;45480;-67
2022/02/28 02:09:58;;;;;;;;;17.75;12.00;;;;;3.94;55.83;101856.41;5096219;27;45424;-66
2022/02/28 02:12:27;;;;;;;;;12.75;12.00;;;;;3.92;55.35;101860.75;5098772;27;45668;-69
2022/02/28 02:14:54;;;;;;;;;12.00;11.50;;;;;3.94;55.62;101863.38;5098327;27;46453;-67
2022/02/28 02:17:20;;;;;;;;;13.25;10.00;;;;;3.93;55.58;101859.03;5096975;27;45408;-68
2022/02/28 02:19:46;;;;;;;;;10.00;10.00;;;;;3.92;55.54;101865.09;5097824;27;45340;-68
2022/02/28 02:22:20;;;;;;;;;11.75;11.00;;;;;3.92;55.23;101854.69;5097280;27;45448;-68
2022/02/28 02:24:45;;;;;;;;;13.25;11.50;;;;;3.91;55.58;101859.00;5113452;27;47051;-68
2022/02/28 02:27:10;;;;;;;;;13.25;10.50;;;;;3.92;55.26;101857.28;5096784;27;45685;-67
2022/02/28 02:29:40;;;;;;;;;13.25;11.25;;;;;3.90;55.73;101866.81;5096444;27;45339;-66
2022/02/28 02:32:10;;;;;;;;;11.75;10.50;;;;;3.90;55.21;101856.41;5097264;27;45831;-67
2022/02/28 02:34:35;;;;;;;;;10.50;10.50;;;;;3.87;55.01;101853.78;5097229;27;47081;-66
2022/02/28 02:37:01;;;;;;;;;11.50;10.75;;;;;3.84;55.06;101852.00;5096830;27;45314;-67
2022/02/28 02:39:26;;;;;;;;;11.25;11.00;;;;;3.86;54.98;101854.63;5097749;27;45738;-68
2022/02/28 02:41:53;;;;;;;;;12.00;7.00;;;;;3.87;55.50;101866.78;5097976;27;45503;-68
2022/02/28 02:44:19;;;;;;;;;15.00;10.00;;;;;3.85;55.73;101869.38;5096085;27;46291;-69
2022/02/28 02:46:48;;;;;;;;;12.75;9.00;;;;;3.84;55.79;101866.78;5075875;27;45303;-67
2022/02/28 02:49:14;;;;;;;;;10.00;9.75;;;;;3.80;55.70;101856.34;5075465;27;45423;-68
2022/02/28 02:51:43;;;;;;;;;12.75;11.25;;;;;3.82;55.36;101864.13;5075748;27;45397;-68
2022/02/28 02:54:09;;;;;;;;;10.50;10.25;;;;;3.76;55.38;101859.75;5077406;27;45442;-69
2022/02/28 02:56:37;;;;;;;;;9.50;9.50;;;;;3.75;55.76;101847.63;5079623;27;45476;-66
2022/02/28 02:59:04;;;;;;;;;12.50;11.00;;;;;3.72;55.81;101849.31;5095077;27;45468;-69
2022/02/28 03:01:29;;;;;;;;;12.25;11.00;;;;;3.73;55.19;101851.94;5097274;27;45383;-67
2022/02/28 03:03:55;;;;;;;;;14.00;10.75;;;;;3.69;55.51;101838.88;5096782;27;45930;-68
2022/02/28 03:06:20;;;;;;;;;10.50;9.50;;;;;3.68;55.78;101860.53;5096139;27;45828;-69
2022/02/28 03:08:46;;;;;;;;;12.25;11.50;;;;;3.68;55.15;101855.34;5095908;27;45388;-65
2022/02/28 03:11:11;;;;;;;;;11.50;10.00;;;;;3.68;56.21;101864.00;5095732;27;45734;-66
2022/02/28 03:13:37;;;;;;;;;12.50;10.75;;;;;3.65;55.08;101851.84;5095063;27;46222;-68
2022/02/28 03:16:03;;;;;;;;;11.00;11.00;;;;;3.65;55.59;101859.66;5094796;27;45362;-67
2022/02/28 03:18:28;;;;;;;;;12.50;11.00;;;;;3.63;55.79;101855.28;5097930;27;45427;-68
2022/02/28 03:20:54;;;;;;;;;21.00;19.00;;;;;3.62;55.15;101850.94;5097374;27;45218;-67
2022/02/28 03:23:19;;;;;;;;;18.50;16.75;;;;;3.62;56.29;101850.94;5094545;27;45396;-69
2022/02/28 03:25:44;;;;;;;;;24.25;19.00;;;;;3.61;55.28;101852.69;5096549;27;45424;-68
2022/02/28 03:28:10;;;;;;;;;22.25;18.75;;;;;3.58;55.58;101850.06;5095655;27;46014;-68
2022/02/28 03:30:35;;;;;;;;;26.00;20.75;;;;;3.58;55.78;101850.06;5096801;27;45433;-67
2022/02/28 03:33:01;;;;;;;;;26.00;20.25;;;;;3.54;55.43;101848.28;5097005;27;45575;-64
2022/02/28 03:35:26;;;;;;;;;24.75;19.00;;;;;3.51;55.11;101851.72;5095590;27;45468;-64
2022/02/28 03:37:52;;;;;;;;;22.25;19.00;;;;;3.50;56.28;101854.31;5096661;27;45324;-64
2022/02/28 03:40:17;;;;;;;;;26.25;18.25;;;;;3.48;56.19;101849.06;5096962;27;45425;-64
2022/02/28 03:42:43;;;;;;;;;22.75;18.75;;;;;3.47;56.30;101849.06;5096730;27;45231;-65
2022/02/28 03:45:08;;;;;;;;;20.25;17.50;;;;;3.42;55.65;101848.16;5096843;27;45410;-69
2022/02/28 03:47:34;;;;;;;;;21.50;17.75;;;;;3.41;56.51;101851.63;5096694;27;45403;-68
2022/02/28 03:49:59;;;;;;;;;20.75;17.00;;;;;3.37;56.01;101850.69;5097107;27;45329;-70
2022/02/28 03:52:25;;;;;;;;;17.00;13.50;;;;;3.34;56.06;101846.34;5096297;27;45323;-68
2022/02/28 03:54:50;;;;;;;;;20.50;15.75;;;;;3.33;57.17;101838.53;5096743;27;45258;-69
2022/02/28 03:57:16;;;;;;;;;18.25;13.75;;;;;3.32;57.08;101839.38;5112306;27;45261;-67
2022/02/28 03:59:41;;;;;;;;;17.50;16.25;;;;;3.29;57.36;101835.03;5096589;27;45587;-67
2022/02/28 04:02:08;;;;;;;;;16.00;13.00;;;;;3.26;56.20;101831.50;5096159;27;47828;-68
2022/02/28 04:04:33;;;;;;;;;15.00;13.50;;;;;3.24;57.54;101843.63;5112493;27;45211;-68
2022/02/28 04:06:59;;;;;;;;;13.00;12.50;;;;;3.21;57.37;101841.88;5096151;27;45297;-66
2022/02/28 04:09:24;;;;;;;;;12.50;10.00;;;;;3.19;57.31;101849.66;5096541;27;45487;-69
2022/02/28 04:11:49;;;;;;;;;14.25;10.00;;;;;3.19;57.37;101848.81;5088306;27;46285;-68
2022/02/28 04:14:15;;;;;;;;;17.50;11.50;;;;;3.15;56.59;101847.00;5095960;27;45309;-68
2022/02/28 04:16:40;;;;;;;;;10.00;5.00;;;;;3.12;56.53;101842.66;5096149;27;45565;-69
2022/02/28 04:19:05;;;;;;;;;11.50;11.00;;;;;3.10;56.80;101849.56;5096311;27;45351;-67
2022/02/28 04:21:31;;;;;;;;;12.00;10.00;;;;;3.09;57.08;101860.81;5096135;27;46380;-68
2022/02/28 04:23:56;;;;;;;;;12.25;12.00;;;;;3.06;56.28;101846.03;5095863;27;45350;-68
2022/02/28 04:26:22;;;;;;;;;10.50;8.50;;;;;3.05;56.93;101859.03;5095995;27;45387;-67
2022/02/28 04:28:48;;;;;;;;;11.00;9.00;;;;;3.04;56.61;101858.13;5096188;27;45512;-69
2022/02/28 04:31:13;;;;;;;;;11.00;10.00;;;;;3.05;57.11;101856.44;5095544;27;45620;-68
2022/02/28 04:33:39;;;;;;;;;10.00;9.75;;;;;3.04;56.64;101859.88;5095919;27;45521;-66
2022/02/28 04:36:05;;;;;;;;;10.25;8.25;;;;;3.04;56.63;101863.34;5096084;27;45381;-72
2022/02/28 04:38:30;;;;;;;;;11.25;10.00;;;;;3.04;57.79;101854.69;5096377;27;45504;-67
2022/02/28 04:40:55;;;;;;;;;10.50;10.00;;;;;3.05;56.85;101862.50;5095875;27;45282;-68
2022/02/28 04:43:21;;;;;;;;;13.25;10.50;;;;;3.04;57.57;101863.34;5094088;27;46043;-66
2022/02/28 04:45:46;;;;;;;;;13.25;12.25;;;;;3.04;58.13;101863.34;5080851;27;45447;-66
2022/02/28 04:48:12;;;;;;;;;12.75;11.00;;;;;3.05;57.19;101864.22;5078690;27;45214;-67
2022/02/28 04:50:37;;;;;;;;;9.75;9.75;;;;;3.01;57.40;101863.31;5077647;27;45469;-67
2022/02/28 04:53:02;;;;;;;;;13.50;9.50;;;;;3.00;57.66;101858.97;5078150;27;45444;-69
2022/02/28 04:55:28;;;;;;;;;10.75;10.00;;;;;2.98;57.92;101863.28;5078478;27;45650;-69
2022/02/28 04:57:54;;;;;;;;;9.75;8.50;;;;;3.00;57.59;101850.31;5077578;27;45678;-68
2022/02/28 05:00:19;;;;;;;;;11.00;10.75;;;;;2.99;57.02;101856.38;5077902;27;45871;-69
2022/02/28 05:02:45;;;;;;;;;10.25;9.25;;;;;2.97;57.46;101864.13;5077541;27;45902;-68
2022/02/28 05:05:11;;;;;;;;;10.75;7.75;;;;;2.96;56.40;101864.97;5076948;27;45482;-66
2022/02/28 05:07:37;;;;;;;;;12.25;10.75;;;;;2.95;57.34;101868.44;5078728;27;45588;-65
2022/02/28 05:10:03;;;;;;;;;12.00;10.50;;;;;2.94;57.28;101866.69;5077977;27;46207;-68
2022/02/28 05:12:28;;;;;;;;;11.25;9.00;;;;;2.96;56.68;101874.53;5076888;27;45385;-69
2022/02/28 05:14:53;;;;;;;;;16.75;12.25;;;;;2.94;56.22;101871.03;5077279;28;45704;-69
2022/02/28 05:17:19;;;;;;;;;12.50;10.00;;;;;2.94;57.20;101871.88;5078701;27;45326;-68
2022/02/28 05:19:44;;;;;;;;;10.75;9.50;;;;;2.94;56.67;101874.47;5078185;27;46177;-70
2022/02/28 05:22:10;;;;;;;;;12.75;9.50;;;;;2.97;56.30;101878.88;5093937;27;45487;-67
2022/02/28 05:24:36;;;;;;;;;11.25;8.00;;;;;2.96;56.58;101880.56;5078867;27;45339;-68
2022/02/28 05:27:02;;;;;;;;;14.25;9.50;;;;;2.97;57.36;101881.47;5078529;27;45243;-67
2022/02/28 05:29:29;;;;;;;;;10.75;9.50;;;;;2.95;56.95;101884.03;5077738;27;46381;-69
2022/02/28 05:31:54;;;;;;;;;13.50;11.00;;;;;2.92;57.12;101881.38;5077991;27;45384;-68
2022/02/28 05:34:20;;;;;;;;;11.50;10.00;;;;;2.95;57.03;101884.03;5078069;27;45350;-68
2022/02/28 05:36:46;;;;;;;;;15.75;10.25;;;;;2.95;57.31;101885.78;5078222;27;45444;-68
2022/02/28 05:39:11;;;;;;;;;13.75;10.50;;;;;2.93;56.73;101885.72;5077862;28;46449;-68
2022/02/28 05:41:37;;;;;;;;;14.75;11.50;;;;;2.92;56.86;101877.09;5076787;28;45469;-68
2022/02/28 05:44:03;;;;;;;;;17.75;12.25;;;;;2.91;58.01;101884.84;5078127;27;45273;-67
2022/02/28 05:46:28;;;;;;;;;17.75;16.00;;;;;2.92;56.64;101879.69;5078280;27;45625;-68
2022/02/28 05:48:53;;;;;;;;;11.75;11.00;;;;;2.90;57.60;101881.38;5077877;28;46412;-67
2022/02/28 05:51:19;;;;;;;;;13.25;9.50;;;;;2.88;56.68;101883.09;5077502;27;45342;-67
2022/02/28 05:53:44;;;;;;;;;12.00;11.00;;;;;2.88;56.99;101883.09;5077760;27;45422;-65
2022/02/28 05:56:10;;;;;;;;;13.25;13.25;;;;;2.89;57.25;101886.56;5092493;27;45576;-64
2022/02/28 05:58:35;;;;;;;;;15.75;13.00;;;;;2.86;56.97;101887.41;5078055;27;45278;-64
2022/02/28 06:01:01;;;;;;;;;15.50;13.25;;;;;2.86;58.04;101887.41;5076027;27;45289;-66
2022/02/28 06:03:26;;;;;;;;;15.50;13.25;;;;;2.86;57.54;101896.91;5077473;27;45188;-67
2022/02/28 06:05:51;;;;;;;;;17.50;13.50;;;;;2.88;57.52;101897.81;5076180;27;45395;-67
2022/02/28 06:08:17;;;;;;;;;18.00;14.75;;;;;2.86;57.10;101912.50;5075663;28;45292;-66
2022/02/28 06:10:42;;;;;;;;;17.75;13.25;;;;;2.84;58.08;101916.81;5077405;27;45275;-67
2022/02/28 06:13:08;;;;;;;;;17.50;12.25;;;;;2.85;58.39;101908.16;5077603;27;45314;-68
2022/02/28 06:15:33;;;;;;;;;15.25;14.00;;;;;2.88;58.26;101918.59;5077773;28;45544;-67
2022/02/28 06:18:00;;;;;;;;;16.00;13.75;;;;;2.88;58.32;101921.19;5076968;28;46331;-67
2022/02/28 06:20:25;;;;;;;;;15.25;12.25;;;;;2.88;57.82;101913.41;5093074;27;45773;-67
2022/02/28 06:22:51;;;;;;;;;19.25;16.00;;;;;2.88;58.10;101908.19;5077245;27;45391;-68
2022/02/28 06:25:17;;;;;;;;;17.75;12.75;;;;;2.89;57.74;101918.63;5077529;27;45504;-68
2022/02/28 06:27:42;;;;;;;;;13.50;13.00;;;;;2.89;58.23;101916.03;5077035;27;45708;-69
2022/02/28 06:30:08;;;;;;;;;15.25;12.50;;;;;2.94;58.71;101918.66;5077285;28;45441;-68
2022/02/28 06:32:34;;;;;;;;;19.00;16.25;;;;;2.96;58.14;101909.16;5077020;27;45223;-68
2022/02/28 06:35:00;;;;;;;;;20.00;16.25;;;;;2.98;58.08;101914.41;5077093;27;45460;-68
2022/02/28 06:37:25;;;;;;;;;18.25;12.75;;;;;2.97;57.83;101918.72;5076936;27;45278;-65
2022/02/28 06:39:51;;;;;;;;;17.25;12.75;;;;;2.97;58.01;101918.72;5076787;27;45261;-68
2022/02/28 06:42:16;;;;;;;;;18.00;15.50;;;;;2.94;57.90;101915.22;5076311;27;45845;-68
2022/02/28 06:44:42;;;;;;;;;15.25;13.25;;;;;2.93;58.03;101916.94;5077409;28;45441;-66
2022/02/28 06:47:07;;;;;;;;;18.25;15.25;;;;;2.93;58.02;101927.31;5077307;27;45597;-68
2022/02/28 06:49:33;;;;;;;;;19.50;13.75;;;;;2.89;58.42;101930.72;5077157;27;45438;-69
2022/02/28 06:51:58;;;;;;;;;15.75;14.00;;;;;2.90;58.46;101932.47;5076772;27;45176;-69
2022/02/28 06:54:24;;;;;;;;;16.00;15.25;;;;;2.88;58.02;101927.28;5076928;27;45583;-68
2022/02/28 06:56:49;;;;;;;;;18.00;12.00;;;;;2.89;57.87;101933.34;5076441;27;46967;-68
2022/02/28 06:59:14;;;;;;;;;36.00;28.75;;;;;2.89;57.56;101930.72;5076539;27;45279;-70
2022/02/28 07:01:40;;;;;;;;;18.25;13.00;;;;;2.88;58.24;101929.88;5077145;27;45325;-67
2022/02/28 07:04:07;;;;;;;;;17.50;15.00;;;;;2.90;58.82;101935.97;5076741;27;45287;-68
2022/02/28 07:06:34;;;;;;;;;16.75;15.50;;;;;2.91;57.85;101937.72;5075986;27;46241;-66
2022/02/28 07:09:00;;;;;;;;;20.75;16.25;;;;;2.95;58.62;101943.81;5076974;27;45448;-66
2022/02/28 07:11:25;;;;;;;;;15.50;15.00;;;;;2.98;58.64;101946.44;5076562;27;45307;-64
2022/02/28 07:13:51;;;;;;;;;15.25;13.75;;;;;3.00;58.32;101928.28;5076997;27;45528;-64
2022/02/28 07:16:20;;;;;;;;;22.00;15.75;;;;;3.01;57.52;101930.03;5075280;28;46093;-63
2022/02/28 07:18:46;;;;;;;;;22.00;13.50;;;;;3.00;57.29;101929.16;5090671;27;45513;-64
2022/02/28 07:21:11;;;;;;;;;15.25;15.25;;;;;3.00;57.61;101923.94;5125537;27;45373;-65
2022/02/28 07:23:36;;;;;;;;;12.50;12.50;;;;;2.98;57.68;101920.47;5118779;27;45457;-63
2022/02/28 07:26:02;;;;;;;;;17.75;14.75;;;;;3.03;58.15;101926.59;5098333;27;45490;-64
2022/02/28 07:28:27;;;;;;;;;20.25;16.50;;;;;3.06;58.31;101926.63;5096534;27;45297;-67
2022/02/28 07:30:53;;;;;;;;;12.50;11.75;;;;;3.10;57.70;101924.06;5096883;27;45341;-66
2022/02/28 07:33:19;;;;;;;;;16.25;14.25;;;;;3.12;57.67;101917.16;5096687;27;45597;-65
2022/02/28 07:35:44;;;;;;;;;27.00;18.50;;;;;3.19;58.13;101929.41;5096932;27;46562;-65
2022/02/28 07:38:10;;;;;;;;;22.25;15.75;;;;;3.13;57.60;101913.69;5097736;27;45510;-66
2022/02/28 07:40:36;;;;;;;;;17.25;13.00;;;;;3.21;58.24;101932.91;5096712;27;45306;-66
2022/02/28 07:43:02;;;;;;;;;15.00;13.25;;;;;3.24;57.41;101943.34;5100499;27;45440;-72
2022/02/28 07:45:27;;;;;;;;;20.50;16.50;;;;;3.19;57.68;101939.81;5117031;27;45371;-67
2022/02/28 07:47:53;;;;;;;;;18.00;16.00;;;;;3.27;57.33;101945.09;5102911;27;45490;-67
2022/02/28 07:50:18;;;;;;;;;20.50;18.25;;;;;3.29;57.65;101956.38;5095119;27;45561;-65
2022/02/28 07:52:44;;;;;;;;;14.75;12.25;;;;;3.27;57.85;101955.50;5094908;27;45522;-68
2022/02/28 07:55:09;;;;;;;;;23.25;19.50;;;;;3.34;57.33;101965.13;5095430;27;46450;-65
2022/02/28 07:57:35;;;;;;;;;19.00;16.00;;;;;3.34;57.19;101963.41;5093537;27;45458;-64
2022/02/28 08:00:01;;;;;;;;;19.00;17.00;;;;;3.34;57.58;101960.81;5096487;27;45404;-66
2022/02/28 08:02:27;;;;;;;;;22.00;18.00;;;;;3.39;56.99;101967.78;5094862;27;45432;-66
2022/02/28 08:04:52;;;;;;;;;19.50;16.25;;;;;3.42;57.58;101968.69;5094801;27;46129;-65
2022/02/28 08:07:18;;;;;;;;;20.75;15.75;;;;;3.41;56.59;101966.94;5094600;27;45324;-65
2022/02/28 08:09:44;;;;;;;;;18.75;16.75;;;;;3.45;57.94;101967.84;5096339;27;45302;-68
2022/02/28 08:12:09;;;;;;;;;19.50;16.50;;;;;3.49;57.53;101975.69;5094935;27;45341;-65
2022/02/28 08:14:36;;;;;;;;;22.00;14.25;;;;;3.53;57.42;101963.63;5096729;27;45330;-65
2022/02/28 08:17:01;;;;;;;;;18.50;14.25;;;;;3.57;56.97;101961.91;5096062;27;45260;-66
2022/02/28 08:19:27;;;;;;;;;19.75;17.75;;;;;3.58;56.92;101959.34;5095140;27;45467;-65
2022/02/28 08:21:52;;;;;;;;;20.50;19.00;;;;;3.61;57.69;101954.16;5096248;27;45225;-67
2022/02/28 08:24:17;;;;;;;;;22.75;20.25;;;;;3.65;56.65;101936.84;5095698;27;46114;-67
2022/02/28 08:26:43;;;;;;;;;25.00;21.00;;;;;3.72;58.37;101937.78;5094566;27;45236;-66
2022/02/28 08:29:09;;;;;;;;;18.75;18.00;;;;;3.80;56.65;101941.34;5095804;27;45417;-64
2022/02/28 08:31:34;;;;;;;;;27.50;24.50;;;;;3.85;57.39;101934.44;5096299;27;45285;-65
2022/02/28 08:34:00;;;;;;;;;23.75;20.25;;;;;3.90;57.54;101940.56;5094240;27;47180;-66
2022/02/28 08:36:25;;;;;;;;;23.25;19.25;;;;;3.92;57.25;101925.84;5095761;27;45287;-67
2022/02/28 08:38:51;;;;;;;;;18.50;18.00;;;;;4.00;56.52;101935.44;5095940;27;45324;-66
2022/02/28 08:41:17;;;;;;;;;20.75;18.00;;;;;4.05;57.81;101931.16;5096258;27;45309;-65
2022/02/28 08:43:43;;;;;;;;;21.00;20.00;;;;;4.09;57.13;101931.19;5095783;27;45900;-65
2022/02/28 08:46:08;;;;;;;;;23.25;23.00;;;;;4.16;57.04;101941.66;5095360;27;45495;-66
2022/02/28 08:48:37;;;;;;;;;20.25;19.50;;;;;4.19;56.20;101945.16;5096116;27;45408;-64
2022/02/28 08:51:03;;;;;;;;;27.00;19.50;;;;;4.24;56.84;101933.06;5094465;27;45327;-67
2022/02/28 08:53:28;;;;;;;;;22.75;19.75;;;;;4.27;55.95;101937.41;5095364;27;46078;-67
2022/02/28 08:55:54;;;;;;;;;24.00;19.00;;;;;4.32;56.75;101934.88;5095664;27;45269;-66
2022/02/28 08:58:20;;;;;;;;;25.25;20.75;;;;;4.42;56.63;101938.38;5095530;27;45455;-67
2022/02/28 09:00:45;;;;;;;;;27.25;20.50;;;;;4.47;56.18;101941.91;5095830;27;45246;-65
2022/02/28 09:03:11;;;;;;;;;22.50;20.50;;;;;4.53;56.47;101940.22;5095449;27;45435;-68
2022/02/28 09:05:37;;;;;;;;;30.25;23.75;;;;;4.63;56.16;101930.72;5094305;27;45246;-66
2022/02/28 09:08:03;;;;;;;;;23.00;20.00;;;;;4.73;56.44;101929.06;5095292;27;45322;-65
2022/02/28 09:10:28;;;;;;;;;25.25;23.00;;;;;4.80;55.58;101936.03;5095752;27;45515;-66
2022/02/28 09:12:54;;;;;;;;;22.75;19.00;;;;;4.88;55.60;101936.09;5095113;27;45993;-67
2022/02/28 09:15:19;;;;;;;;;20.75;20.00;;;;;4.97;55.12;101940.47;5095266;27;45333;-65
2022/02/28 09:17:45;;;;;;;;;20.75;17.25;;;;;4.96;54.99;101920.47;5095743;27;45419;-67
2022/02/28 09:20:11;;;;;;;;;22.00;19.25;;;;;5.02;54.73;101936.16;5095731;27;45352;-66
2022/02/28 09:22:37;;;;;;;;;24.00;22.50;;;;;5.08;54.81;101925.75;5094292;27;47130;-66
2022/02/28 09:25:03;;;;;;;;;14.75;14.25;;;;;5.15;54.09;101944.03;5095266;27;45286;-65
2022/02/28 09:27:28;;;;;;;;;20.00;18.25;;;;;5.20;54.35;101950.13;5095186;27;45372;-66
2022/02/28 09:29:54;;;;;;;;;22.25;19.50;;;;;5.29;54.08;101957.13;5095991;27;45503;-67
2022/02/28 09:32:19;;;;;;;;;20.75;16.00;;;;;5.29;54.36;101949.31;5098077;27;46866;-68
2022/02/28 09:34:45;;;;;;;;;24.75;19.25;;;;;5.44;53.54;101965.03;5099749;27;45264;-67
2022/02/28 09:37:11;;;;;;;;;29.00;23.50;;;;;5.48;53.05;101964.16;5098912;27;45230;-67
2022/02/28 09:39:36;;;;;;;;;25.00;17.25;;;;;5.54;53.13;101956.34;5098898;27;45549;-66
2022/02/28 09:42:02;;;;;;;;;26.25;20.75;;;;;5.60;53.21;101947.69;5098175;27;45310;-66
2022/02/28 09:44:28;;;;;;;;;22.50;20.00;;;;;5.70;53.09;101954.66;5096709;27;45392;-67
2022/02/28 09:46:54;;;;;;;;;27.00;19.50;;;;;5.73;52.56;101966.84;5097379;27;45477;-66
2022/02/28 09:49:20;;;;;;;;;22.00;21.75;;;;;5.82;52.99;101972.06;5098665;27;45506;-65
2022/02/28 09:51:45;;;;;;;;;21.75;19.25;;;;;5.88;53.32;101971.22;5098853;27;46046;-67
2022/02/28 09:54:11;;;;;;;;;23.50;18.75;;;;;5.98;52.41;101970.38;5098247;27;45304;-67
2022/02/28 09:56:36;;;;;;;;;23.25;19.50;;;;;6.08;52.32;101960.84;5098483;27;45262;-68
2022/02/28 09:59:03;;;;;;;;;21.25;19.00;;;;;6.18;51.86;101969.56;5097974;27;45263;-67
2022/02/28 10:01:28;;;;;;;;;23.50;23.25;;;;;6.27;51.76;101977.41;5098031;27;47200;-67
2022/02/28 10:03:54;;;;;;;;;23.00;20.00;;;;;6.36;51.43;101958.25;5096682;27;45266;-67
2022/02/28 10:06:19;;;;;;;;;23.25;18.50;;;;;6.43;51.47;101957.38;5091655;27;45338;-67
2022/02/28 10:08:46;;;;;;;;;21.75;19.25;;;;;6.54;50.92;101964.31;5098283;27;45599;-67
2022/02/28 10:11:23;;;;;;;;;22.50;20.25;;;;;6.62;50.51;101965.19;5097986;27;46160;-68
2022/02/28 10:13:50;;;;;;;;;26.00;18.50;;;;;6.70;51.17;101952.09;5098262;27;45317;-67
2022/02/28 10:16:32;;;;;;;;;22.50;19.00;;;;;6.80;50.20;101952.94;5098062;27;45376;-66
2022/02/28 10:18:58;;;;;;;;;26.25;23.75;;;;;6.91;50.76;101952.94;5098259;27;45337;-67
2022/02/28 10:21:47;;;;;;;;;21.25;18.25;;;;;7.01;50.70;101947.69;5097793;27;45397;-65
2022/02/28 10:24:25;;;;;;;;;23.00;21.50;;;;;7.11;50.57;101951.13;5098091;27;45320;-67
2022/02/28 10:26:57;;;;;;;;;23.50;20.50;;;;;7.22;50.24;101960.66;5098373;27;45408;-67
2022/02/28 10:29:25;;;;;;;;;22.50;19.75;;;;;7.32;50.02;101967.59;5098090;27;45473;-67
2022/02/28 10:31:51;;;;;;;;;22.50;19.25;;;;;7.35;48.97;101964.13;5097871;27;46528;-69
2022/02/28 10:34:20;;;;;;;;;23.50;21.00;;;;;7.41;49.47;101962.31;5097386;27;45510;-68
2022/02/28 10:36:57;;;;;;;;;24.50;22.00;;;;;7.51;49.82;101972.78;5097524;27;45395;-67
2022/02/28 10:39:24;;;;;;;;;23.75;19.75;;;;;7.58;49.22;101977.97;5098034;27;45687;-68
2022/02/28 10:41:51;;;;;;;;;18.50;15.50;;;;;7.68;48.89;101981.41;5097178;27;46135;-69
2022/02/28 10:44:16;;;;;;;;;20.00;18.25;;;;;7.78;48.83;101981.38;5097747;27;45456;-67
2022/02/28 10:46:44;;;;;;;;;32.75;27.50;;;;;7.88;49.23;101973.41;5097486;27;45403;-66
2022/02/28 10:49:20;;;;;;;;;27.75;25.00;;;;;8.01;49.02;101968.13;5095926;27;45557;-66
2022/02/28 10:51:54;;;;;;;;;22.25;21.25;;;;;8.16;48.25;101961.88;5095796;27;46944;-66
2022/02/28 10:54:44;;;;;;;;;30.25;20.00;;;;;8.25;47.38;101969.66;5096419;27;45390;-66
2022/02/28 10:57:10;;;;;;;;;20.00;20.00;;;;;8.34;47.42;101953.00;5096027;27;45458;-67
2022/02/28 10:59:49;;;;;;;;;22.75;17.50;;;;;8.39;47.15;101950.31;5097228;27;45674;-68
2022/02/28 11:02:26;;;;;;;;;20.00;20.00;;;;;8.52;47.17;101962.50;5096674;27;47091;-65
2022/02/28 11:05:05;;;;;;;;;23.50;20.75;;;;;8.62;46.65;101966.78;5096024;27;45289;-68
2022/02/28 11:07:30;;;;;;;;;23.50;22.25;;;;;8.70;46.17;101971.06;5097025;27;45305;-66
2022/02/28 11:09:58;;;;;;;;;23.00;19.00;;;;;8.82;46.67;101980.56;5097033;27;45471;-66
2022/02/28 11:12:27;;;;;;;;;25.25;21.75;;;;;8.94;46.65;101982.19;5097097;27;46038;-68